createdAt,value
2018-05-25T00:01:19.811Z,15.40
2018-05-25T00:03:47.470Z,15.30
2018-05-25T00:06:15.018Z,15.40
2018-05-25T00:08:43.330Z,15.20
2018-05-25T00:11:10.830Z,15.20
2018-05-25T00:13:38.318Z,15.20
2018-05-25T00:16:05.887Z,15.20
2018-05-25T00:18:33.441Z,15.10
2018-05-25T00:21:00.952Z,15.10
2018-05-25T00:23:30.086Z,15.10
2018-05-25T00:25:58.353Z,15.30
2018-05-25T00:28:26.606Z,15.40
2018-05-25T00:30:54.087Z,15.30
2018-05-25T00:33:22.338Z,15.40
2018-05-25T00:35:49.813Z,15.40
2018-05-25T00:38:18.077Z,15.40
2018-05-25T00:40:45.668Z,15.40
2018-05-25T00:43:13.993Z,15.40
2018-05-25T00:45:41.566Z,15.40
2018-05-25T00:48:09.112Z,15.40
2018-05-25T00:50:36.675Z,15.40
2018-05-25T00:53:04.163Z,15.50
2018-05-25T00:55:40.511Z,15.60
2018-05-25T00:58:08.025Z,15.60
2018-05-25T01:00:35.603Z,15.50
2018-05-25T01:03:03.259Z,15.30
2018-05-25T01:05:30.731Z,15.30
2018-05-25T01:07:58.299Z,15.40
2018-05-25T01:10:25.962Z,15.40
2018-05-25T01:12:53.510Z,15.40
2018-05-25T01:15:21.045Z,15.40
2018-05-25T01:17:48.505Z,15.40
2018-05-25T01:20:15.989Z,15.40
2018-05-25T01:22:43.470Z,15.50
2018-05-25T01:25:11.714Z,15.60
2018-05-25T01:27:39.306Z,15.60
2018-05-25T01:30:06.846Z,15.60
2018-05-25T01:32:34.322Z,15.60
2018-05-25T01:35:01.828Z,15.60
2018-05-25T01:37:29.330Z,15.70
2018-05-25T01:39:57.650Z,15.70
2018-05-25T01:42:25.187Z,15.70
2018-05-25T01:44:52.687Z,15.70
2018-05-25T01:47:20.893Z,15.70
2018-05-25T01:49:48.389Z,15.70
2018-05-25T01:52:16.645Z,15.60
2018-05-25T01:54:44.137Z,15.60
2018-05-25T01:57:11.641Z,15.70
2018-05-25T01:59:39.140Z,15.70
2018-05-25T02:02:07.388Z,15.70
2018-05-25T02:04:34.942Z,15.60
2018-05-25T02:07:03.435Z,15.60
2018-05-25T02:09:30.962Z,15.60
2018-05-25T02:11:58.465Z,15.60
2018-05-25T02:14:26.731Z,15.40
2018-05-25T02:16:54.217Z,15.40
2018-05-25T02:19:21.772Z,15.40
2018-05-25T02:21:50.119Z,15.40
2018-05-25T02:24:17.722Z,15.40
2018-05-25T02:26:45.351Z,15.40
2018-05-25T02:29:13.713Z,15.30
2018-05-25T02:31:41.248Z,15.30
2018-05-25T02:34:08.719Z,15.30
2018-05-25T02:36:36.185Z,15.30
2018-05-25T02:39:03.662Z,15.30
2018-05-25T02:41:31.233Z,15.30
2018-05-25T02:43:59.506Z,15.30
2018-05-25T02:46:28.017Z,15.30
2018-05-25T02:48:55.650Z,15.20
2018-05-25T02:51:23.885Z,15.20
2018-05-25T02:53:51.357Z,15.20
2018-05-25T02:56:18.830Z,15.20
2018-05-25T02:58:47.083Z,15.00
2018-05-25T03:01:14.607Z,15.00
2018-05-25T03:03:42.130Z,15.00
2018-05-25T03:06:10.367Z,14.90
2018-05-25T03:08:38.025Z,14.90
2018-05-25T03:11:05.517Z,14.80
2018-05-25T03:13:33.018Z,14.80
2018-05-25T03:16:00.530Z,14.80
2018-05-25T03:18:28.197Z,14.80
2018-05-25T03:20:55.815Z,14.70
2018-05-25T03:23:23.383Z,14.60
2018-05-25T03:25:51.030Z,14.40
2018-05-25T03:28:18.505Z,14.50
2018-05-25T03:30:46.006Z,14.50
2018-05-25T03:33:14.777Z,14.50
2018-05-25T03:35:42.270Z,14.50
2018-05-25T03:38:09.819Z,14.60
2018-05-25T03:40:37.311Z,14.50
2018-05-25T03:43:04.809Z,14.40
2018-05-25T03:45:33.048Z,14.40
2018-05-25T03:48:00.563Z,14.40
2018-05-25T03:50:28.802Z,14.40
2018-05-25T03:52:56.327Z,14.40
2018-05-25T03:55:24.225Z,14.40
2018-05-25T03:57:51.717Z,14.40
2018-05-25T04:00:31.762Z,14.30
2018-05-25T04:03:00.161Z,14.20
2018-05-25T04:05:28.726Z,14.20
2018-05-25T04:07:57.006Z,14.10
2018-05-25T04:10:25.359Z,14.10
2018-05-25T04:12:52.841Z,14.10
2018-05-25T04:15:21.095Z,14.10
2018-05-25T04:17:48.589Z,14.10
2018-05-25T04:20:16.857Z,13.90
2018-05-25T04:22:45.211Z,13.90
2018-05-25T04:25:12.753Z,13.90
2018-05-25T04:27:40.226Z,13.90
2018-05-25T04:30:07.723Z,13.90
2018-05-25T04:32:35.232Z,13.80
2018-05-25T04:35:02.880Z,14.00
2018-05-25T04:37:30.507Z,14.20
2018-05-25T04:39:58.049Z,14.30
2018-05-25T04:42:26.362Z,14.60
2018-05-25T04:44:53.868Z,14.60
2018-05-25T04:47:22.261Z,14.80
2018-05-25T04:49:50.582Z,14.80
2018-05-25T04:52:18.153Z,14.80
2018-05-25T04:54:46.169Z,14.90
2018-05-25T04:57:14.415Z,15.00
2018-05-25T04:59:41.999Z,15.00
2018-05-25T05:02:09.603Z,15.10
2018-05-25T05:04:37.086Z,15.10
2018-05-25T05:07:04.583Z,15.20
2018-05-25T05:09:32.998Z,15.30
2018-05-25T05:12:01.074Z,15.20
2018-05-25T05:14:28.570Z,15.30
2018-05-25T05:16:56.135Z,15.40
2018-05-25T05:19:23.628Z,15.40
2018-05-25T05:21:51.110Z,15.40
2018-05-25T05:24:18.641Z,15.40
2018-05-25T05:26:46.229Z,15.50
2018-05-25T05:29:13.761Z,15.60
2018-05-25T05:31:41.256Z,15.70
2018-05-25T05:34:08.910Z,15.80
2018-05-25T05:36:36.501Z,15.90
2018-05-25T05:39:03.986Z,15.90
2018-05-25T05:41:32.511Z,16.00
2018-05-25T05:44:00.056Z,15.90
2018-05-25T05:46:27.591Z,16.10
2018-05-25T05:48:55.837Z,16.30
2018-05-25T05:51:23.305Z,16.20
2018-05-25T05:53:51.601Z,16.30
2018-05-25T05:56:19.935Z,16.40
2018-05-25T05:58:47.566Z,16.40
2018-05-25T06:01:15.048Z,16.50
2018-05-25T06:03:42.530Z,16.60
2018-05-25T06:06:10.016Z,16.70
2018-05-25T06:08:37.600Z,16.80
2018-05-25T06:11:05.084Z,16.90
2018-05-25T06:13:32.560Z,17.00
2018-05-25T06:16:00.114Z,17.00
2018-05-25T06:18:27.674Z,17.10
2018-05-25T06:20:55.165Z,17.20
2018-05-25T06:23:23.413Z,17.40
2018-05-25T06:25:50.886Z,17.40
2018-05-25T06:28:19.133Z,17.50
2018-05-25T06:30:46.613Z,17.50
2018-05-25T06:33:14.971Z,17.70
2018-05-25T06:35:42.515Z,17.70
2018-05-25T06:38:10.070Z,17.80
2018-05-25T06:40:37.551Z,17.90
2018-05-25T06:43:05.031Z,17.90
2018-05-25T06:45:33.477Z,18.00
2018-05-25T06:48:00.989Z,17.90
2018-05-25T06:50:28.474Z,18.00
2018-05-25T06:52:56.042Z,18.00
2018-05-25T06:55:23.614Z,18.20
2018-05-25T06:57:51.131Z,18.10
2018-05-25T07:00:19.352Z,18.20
2018-05-25T07:02:46.864Z,18.20
2018-05-25T07:05:14.426Z,18.30
2018-05-25T07:07:41.889Z,18.50
2018-05-25T07:10:09.397Z,18.80
2018-05-25T07:12:36.880Z,19.00
2018-05-25T07:15:05.719Z,19.30
2018-05-25T07:17:33.207Z,19.20
2018-05-25T07:20:01.320Z,19.00
2018-05-25T07:22:28.804Z,19.10
2018-05-25T07:24:56.326Z,19.10
2018-05-25T07:27:23.886Z,19.40
2018-05-25T07:29:51.407Z,19.80
2018-05-25T07:32:18.931Z,19.80
2018-05-25T07:34:46.426Z,19.80
2018-05-25T07:37:13.913Z,19.80
2018-05-25T07:39:42.200Z,20.50
2018-05-25T07:42:09.730Z,20.50
2018-05-25T07:44:37.206Z,20.90
2018-05-25T07:47:04.710Z,20.90
2018-05-25T07:49:32.281Z,20.60
2018-05-25T07:51:59.798Z,20.70
2018-05-25T07:54:27.338Z,20.60
2018-05-25T07:56:54.775Z,20.60
2018-05-25T07:59:23.142Z,21.40
2018-05-25T08:01:50.734Z,21.40
2018-05-25T08:04:19.079Z,22.30
2018-05-25T08:06:46.659Z,22.30
2018-05-25T08:09:14.915Z,22.20
2018-05-25T08:11:42.498Z,22.20
2018-05-25T08:14:10.738Z,23.00
2018-05-25T08:16:38.240Z,23.00
2018-05-25T08:19:06.505Z,22.80
2018-05-25T08:21:34.854Z,23.50
2018-05-25T08:24:02.520Z,23.50
2018-05-25T08:26:30.052Z,24.10
2018-05-25T08:28:57.525Z,24.20
2018-05-25T08:31:25.019Z,24.40
2018-05-25T08:33:53.257Z,24.70
2018-05-25T08:36:20.888Z,24.70
2018-05-25T08:38:48.434Z,25.10
2018-05-25T08:41:16.078Z,25.20
2018-05-25T08:43:44.322Z,24.70
2018-05-25T08:46:11.871Z,24.70
2018-05-25T08:48:39.383Z,25.40
2018-05-25T08:51:07.659Z,25.30
2018-05-25T08:53:35.978Z,26.00
2018-05-25T08:56:03.474Z,26.00
2018-05-25T08:58:30.976Z,26.50
2018-05-25T09:00:58.515Z,26.80
2018-05-25T09:03:26.754Z,27.30
2018-05-25T09:05:55.016Z,27.00
2018-05-25T09:08:22.531Z,27.00
2018-05-25T09:10:50.024Z,27.10
2018-05-25T09:13:17.507Z,26.60
2018-05-25T09:15:45.742Z,27.10
2018-05-25T09:18:13.323Z,27.40
2018-05-25T09:20:40.842Z,26.40
2018-05-25T09:23:08.429Z,26.00
2018-05-25T09:25:35.951Z,26.60
2018-05-25T09:28:04.262Z,26.70
2018-05-25T09:30:31.851Z,26.70
2018-05-25T09:32:59.337Z,26.90
2018-05-25T09:35:27.586Z,27.70
2018-05-25T09:37:55.074Z,27.70
2018-05-25T09:40:23.325Z,27.20
2018-05-25T09:42:50.823Z,27.20
2018-05-25T09:45:18.351Z,27.20
2018-05-25T09:47:45.849Z,27.40
2018-05-25T09:50:13.328Z,27.70
2018-05-25T09:52:40.827Z,26.60
2018-05-25T09:55:08.490Z,26.30
2018-05-25T09:57:35.971Z,27.10
2018-05-25T10:00:03.451Z,27.50
2018-05-25T10:02:30.933Z,27.90
2018-05-25T10:04:58.410Z,27.10
2018-05-25T10:07:25.928Z,27.20
2018-05-25T10:09:53.389Z,26.90
2018-05-25T10:12:20.874Z,26.80
2018-05-25T10:14:48.378Z,26.90
2018-05-25T10:17:16.033Z,26.50
2018-05-25T10:19:44.271Z,27.40
2018-05-25T10:22:11.757Z,27.30
2018-05-25T10:24:40.103Z,28.10
2018-05-25T10:27:07.594Z,28.10
2018-05-25T10:29:35.844Z,27.30
2018-05-25T10:32:03.434Z,27.30
2018-05-25T10:34:31.839Z,26.20
2018-05-25T10:37:00.055Z,26.20
2018-05-25T10:39:27.546Z,26.20
2018-05-25T10:41:55.785Z,26.70
2018-05-25T10:44:23.265Z,26.70
2018-05-25T10:46:51.530Z,26.70
2018-05-25T10:49:19.001Z,26.60
2018-05-25T10:51:47.251Z,27.10
2018-05-25T10:54:14.726Z,27.10
2018-05-25T10:56:42.206Z,27.60
2018-05-25T10:59:10.451Z,27.40
2018-05-25T11:01:37.930Z,27.40
2018-05-25T11:04:06.304Z,26.70
2018-05-25T11:06:34.035Z,26.60
2018-05-25T11:09:01.502Z,27.20
2018-05-25T11:11:29.000Z,27.40
2018-05-25T11:13:56.494Z,27.60
2018-05-25T11:16:24.165Z,27.20
2018-05-25T11:18:51.665Z,27.50
2018-05-25T11:21:19.901Z,28.50
2018-05-25T11:23:47.376Z,28.50
2018-05-25T11:26:14.853Z,28.70
2018-05-25T11:28:43.121Z,28.60
2018-05-25T11:31:10.589Z,28.50
2018-05-25T11:33:38.860Z,29.10
2018-05-25T11:36:07.359Z,29.20
2018-05-25T11:38:34.867Z,29.20
2018-05-25T11:41:02.337Z,28.30
2018-05-25T11:43:29.831Z,28.00
2018-05-25T11:45:58.126Z,28.10
2018-05-25T11:48:25.624Z,28.10
2018-05-25T11:50:53.107Z,28.90
2018-05-25T11:53:21.969Z,28.70
2018-05-25T11:55:49.466Z,28.60
2018-05-25T11:58:17.727Z,28.00
2018-05-25T12:00:45.208Z,28.00
2018-05-25T12:03:13.474Z,27.90
2018-05-25T12:05:41.869Z,27.90
2018-05-25T12:08:09.414Z,27.90
2018-05-25T12:10:37.721Z,27.70
2018-05-25T12:13:05.239Z,27.70
2018-05-25T12:15:32.905Z,27.40
2018-05-25T12:18:01.286Z,28.60
2018-05-25T12:20:29.609Z,28.50
2018-05-25T12:22:57.104Z,28.50
2018-05-25T12:25:24.622Z,28.80
2018-05-25T12:27:52.124Z,28.70
2018-05-25T12:30:19.604Z,28.50
2018-05-25T12:32:47.998Z,28.60
2018-05-25T12:35:15.474Z,28.50
2018-05-25T12:37:43.028Z,28.90
2018-05-25T12:40:11.311Z,29.10
2018-05-25T12:42:38.816Z,29.20
2018-05-25T12:45:14.694Z,28.90
2018-05-25T12:47:43.043Z,28.80
2018-05-25T12:50:10.610Z,28.80
2018-05-25T12:52:38.113Z,28.20
2018-05-25T12:55:05.645Z,28.60
2018-05-25T12:57:33.911Z,28.00
2018-05-25T13:00:02.176Z,28.30
2018-05-25T13:02:29.770Z,28.30
2018-05-25T13:04:57.297Z,28.80
2018-05-25T13:07:25.576Z,28.50
2018-05-25T13:09:53.036Z,28.40
2018-05-25T13:12:21.338Z,27.50
2018-05-25T13:14:48.814Z,27.50
2018-05-25T13:17:16.342Z,27.70
2018-05-25T13:19:44.743Z,27.80
2018-05-25T13:22:12.258Z,27.70
2018-05-25T13:24:39.743Z,28.00
2018-05-25T13:27:08.028Z,29.00
2018-05-25T13:29:36.393Z,29.00
2018-05-25T13:32:04.630Z,29.10
2018-05-25T13:34:32.189Z,29.10
2018-05-25T13:36:59.720Z,28.10
2018-05-25T13:39:27.232Z,28.50
2018-05-25T13:41:54.702Z,28.70
2018-05-25T13:44:22.973Z,28.10
2018-05-25T13:46:51.217Z,28.00
2018-05-25T13:49:18.902Z,28.00
2018-05-25T13:51:46.329Z,28.40
2018-05-25T13:54:14.287Z,28.60
2018-05-25T13:56:41.792Z,28.60
2018-05-25T13:59:10.056Z,27.80
2018-05-25T14:01:38.313Z,27.30
2018-05-25T14:04:05.799Z,27.20
2018-05-25T14:06:34.083Z,27.30
2018-05-25T14:09:02.326Z,27.50
2018-05-25T14:11:29.881Z,27.50
2018-05-25T14:13:57.424Z,27.40
2018-05-25T14:16:24.933Z,27.40
2018-05-25T14:18:53.168Z,27.10
2018-05-25T14:21:20.702Z,27.00
2018-05-25T14:23:48.328Z,26.80
2018-05-25T14:26:16.643Z,27.10
2018-05-25T14:28:44.134Z,27.10
2018-05-25T14:31:12.245Z,27.30
2018-05-25T14:33:40.511Z,26.80
2018-05-25T14:36:08.751Z,26.80
2018-05-25T14:38:36.246Z,26.70
2018-05-25T14:41:04.506Z,26.80
2018-05-25T14:43:31.996Z,26.70
2018-05-25T14:45:59.523Z,26.50
2018-05-25T14:48:27.002Z,26.10
2018-05-25T14:50:55.365Z,26.20
2018-05-25T14:53:23.650Z,26.40
2018-05-25T14:55:52.087Z,26.70
2018-05-25T14:58:19.609Z,26.70
2018-05-25T15:00:47.115Z,26.60
2018-05-25T15:03:14.597Z,26.70
2018-05-25T15:05:42.849Z,26.30
2018-05-25T15:08:10.341Z,26.30
2018-05-25T15:10:38.579Z,26.40
2018-05-25T15:13:06.840Z,26.40
2018-05-25T15:15:34.328Z,26.40
2018-05-25T15:18:01.802Z,26.40
2018-05-25T15:20:30.054Z,26.50
2018-05-25T15:22:57.572Z,26.50
2018-05-25T15:25:25.110Z,26.40
2018-05-25T15:27:52.733Z,26.50
2018-05-25T15:30:20.317Z,26.40
2018-05-25T15:32:48.614Z,26.30
2018-05-25T15:35:16.122Z,26.30
2018-05-25T15:37:43.666Z,26.20
2018-05-25T15:40:11.160Z,26.10
2018-05-25T15:42:38.627Z,26.30
2018-05-25T15:45:06.873Z,26.30
2018-05-25T15:47:34.357Z,26.30
2018-05-25T15:50:02.612Z,26.50
2018-05-25T15:52:30.821Z,26.50
2018-05-25T15:54:59.077Z,26.50
2018-05-25T15:57:26.569Z,26.50
2018-05-25T15:59:54.248Z,26.20
2018-05-25T16:02:22.814Z,26.00
2018-05-25T16:04:50.257Z,26.00
2018-05-25T16:07:17.790Z,25.80
2018-05-25T16:09:46.792Z,25.70
2018-05-25T16:12:14.335Z,25.70
2018-05-25T16:14:41.875Z,25.60
2018-05-25T16:17:10.267Z,25.80
2018-05-25T16:19:37.775Z,25.80
2018-05-25T16:22:05.357Z,25.60
2018-05-25T16:24:32.966Z,25.70
2018-05-25T16:27:00.495Z,25.70
2018-05-25T16:29:28.032Z,25.70
2018-05-25T16:31:56.514Z,25.60
2018-05-25T16:34:24.105Z,25.60
2018-05-25T16:36:51.657Z,25.50
2018-05-25T16:39:19.137Z,25.60
2018-05-25T16:41:46.682Z,25.60
2018-05-25T16:44:14.175Z,25.60
2018-05-25T16:46:42.418Z,25.50
2018-05-25T16:49:10.694Z,25.60
2018-05-25T16:51:38.730Z,25.60
2018-05-25T16:54:06.210Z,25.70
2018-05-25T16:56:34.503Z,25.50
2018-05-25T16:59:02.002Z,25.50
2018-05-25T17:01:29.762Z,25.40
2018-05-25T17:03:57.397Z,25.40
2018-05-25T17:06:24.902Z,25.30
2018-05-25T17:08:52.572Z,25.20
2018-05-25T17:11:20.041Z,25.10
2018-05-25T17:13:47.544Z,25.00
2018-05-25T17:16:15.805Z,24.90
2018-05-25T17:18:43.299Z,24.90
2018-05-25T17:21:10.810Z,24.80
2018-05-25T17:23:38.324Z,24.80
2018-05-25T17:26:05.826Z,24.80
2018-05-25T17:28:33.313Z,24.80
2018-05-25T17:31:02.624Z,24.80
2018-05-25T17:33:30.908Z,24.70
2018-05-25T17:35:58.428Z,24.70
2018-05-25T17:38:26.017Z,24.70
2018-05-25T17:40:54.274Z,24.60
2018-05-25T17:43:21.847Z,24.60
2018-05-25T17:45:50.202Z,24.50
2018-05-25T17:48:17.699Z,24.50
2018-05-25T17:50:45.215Z,24.60
2018-05-25T17:53:13.189Z,24.60
2018-05-25T17:55:40.691Z,24.50
2018-05-25T17:58:08.168Z,24.40
2018-05-25T18:00:35.727Z,24.40
2018-05-25T18:03:03.339Z,24.20
2018-05-25T18:05:31.662Z,24.10
2018-05-25T18:07:59.309Z,24.10
2018-05-25T18:10:26.817Z,24.10
2018-05-25T18:12:54.333Z,24.00
2018-05-25T18:15:21.815Z,23.90
2018-05-25T18:17:49.276Z,23.90
2018-05-25T18:20:16.795Z,23.80
2018-05-25T18:22:44.329Z,23.80
2018-05-25T18:25:12.583Z,23.60
2018-05-25T18:27:40.073Z,23.60
2018-05-25T18:30:08.346Z,23.50
2018-05-25T18:32:36.715Z,23.50
2018-05-25T18:35:04.511Z,23.40
2018-05-25T18:37:32.077Z,23.30
2018-05-25T18:39:59.564Z,23.30
2018-05-25T18:42:27.077Z,23.10
2018-05-25T18:44:55.328Z,22.90
2018-05-25T18:47:22.868Z,22.90
2018-05-25T18:49:50.439Z,22.80
2018-05-25T18:52:17.989Z,22.70
2018-05-25T18:54:45.493Z,22.50
2018-05-25T18:57:13.007Z,22.40
2018-05-25T18:59:40.494Z,22.40
2018-05-25T19:02:08.743Z,22.20
2018-05-25T19:04:36.257Z,22.20
2018-05-25T19:07:05.132Z,22.20
2018-05-25T19:09:33.374Z,22.20
2018-05-25T19:12:00.880Z,22.20
2018-05-25T19:14:28.366Z,22.20
2018-05-25T19:16:56.649Z,22.20
2018-05-25T19:19:24.295Z,22.10
2018-05-25T19:21:51.774Z,22.10
2018-05-25T19:24:19.968Z,21.90
2018-05-25T19:26:48.394Z,21.90
2018-05-25T19:29:15.921Z,21.90
2018-05-25T19:31:44.930Z,21.90
2018-05-25T19:34:12.826Z,21.80
2018-05-25T19:36:40.317Z,21.90
2018-05-25T19:39:07.831Z,22.00
2018-05-25T19:41:35.316Z,22.00
2018-05-25T19:44:02.816Z,21.90
2018-05-25T19:46:31.079Z,21.80
2018-05-25T19:48:59.445Z,21.70
2018-05-25T19:51:26.931Z,21.70
2018-05-25T19:53:54.437Z,21.60
2018-05-25T19:56:22.225Z,21.60
2018-05-25T19:58:49.707Z,21.60
2018-05-25T20:01:17.987Z,21.50
2018-05-25T20:03:46.385Z,21.40
2018-05-25T20:06:13.886Z,21.40
2018-05-25T20:08:41.481Z,21.30
2018-05-25T20:11:09.740Z,21.10
2018-05-25T20:13:37.237Z,21.00
2018-05-25T20:16:05.314Z,21.00
2018-05-25T20:18:32.822Z,21.00
2018-05-25T20:21:01.099Z,20.80
2018-05-25T20:23:28.570Z,20.80
2018-05-25T20:25:56.848Z,20.70
2018-05-25T20:28:25.161Z,20.70
2018-05-25T20:30:53.373Z,20.70
2018-05-25T20:33:20.996Z,20.60
2018-05-25T20:35:49.413Z,20.50
2018-05-25T20:38:16.882Z,20.50
2018-05-25T20:40:44.370Z,20.50
2018-05-25T20:43:11.885Z,20.60
2018-05-25T20:45:39.374Z,20.50
2018-05-25T20:48:07.614Z,20.30
2018-05-25T20:50:35.106Z,20.30
2018-05-25T20:53:03.397Z,20.30
2018-05-25T20:55:30.917Z,20.20
2018-05-25T20:57:58.509Z,20.40
2018-05-25T21:00:26.993Z,20.40
2018-05-25T21:02:54.561Z,20.30
2018-05-25T21:05:22.118Z,20.30
2018-05-25T21:07:49.653Z,20.30
2018-05-25T21:10:17.908Z,20.10
2018-05-25T21:12:45.433Z,20.10
2018-05-25T21:15:13.634Z,19.90
2018-05-25T21:17:41.773Z,19.70
2018-05-25T21:20:10.247Z,19.60
2018-05-25T21:22:37.780Z,19.60
2018-05-25T21:25:06.144Z,19.60
2018-05-25T21:27:34.593Z,19.60
2018-05-25T21:30:02.133Z,19.70
2018-05-25T21:32:30.205Z,19.70
2018-05-25T21:34:57.706Z,19.70
2018-05-25T21:37:25.207Z,19.70
2018-05-25T21:39:52.686Z,19.70
2018-05-25T21:42:20.201Z,19.70
2018-05-25T21:44:48.635Z,19.50
2018-05-25T21:47:16.213Z,19.50
2018-05-25T21:49:43.889Z,19.40
2018-05-25T21:52:11.437Z,19.40
2018-05-25T21:54:38.910Z,19.40
2018-05-25T21:57:06.455Z,19.40
2018-05-25T21:59:33.987Z,19.40
2018-05-25T22:02:01.470Z,19.50
2018-05-25T22:04:29.028Z,19.40
2018-05-25T22:06:57.328Z,19.20
2018-05-25T22:09:29.667Z,19.20
2018-05-25T22:11:57.174Z,19.20
2018-05-25T22:14:25.479Z,18.80
2018-05-25T22:16:53.707Z,18.60
2018-05-25T22:19:25.294Z,18.60
2018-05-25T22:21:52.822Z,18.60
2018-05-25T22:24:20.673Z,18.60
2018-05-25T22:26:48.214Z,18.60
2018-05-25T22:29:15.810Z,18.60
2018-05-25T22:31:44.092Z,18.50
2018-05-25T22:34:12.361Z,18.50
2018-05-25T22:36:40.620Z,18.50
2018-05-25T22:39:08.152Z,18.50
2018-05-25T22:41:35.634Z,18.50
2018-05-25T22:44:14.910Z,18.50
2018-05-25T22:46:54.152Z,18.40
2018-05-25T22:49:33.413Z,18.30
2018-05-25T22:52:12.767Z,18.20
2018-05-25T22:54:42.224Z,18.10
2018-05-25T22:57:09.736Z,18.10
2018-05-25T22:59:37.202Z,18.20
2018-05-25T23:02:05.475Z,18.40
2018-05-25T23:04:32.987Z,18.40
2018-05-25T23:07:00.570Z,18.30
2018-05-25T23:09:28.056Z,18.20
2018-05-25T23:11:56.283Z,18.10
2018-05-25T23:14:23.814Z,17.90
2018-05-25T23:16:52.077Z,17.60
2018-05-25T23:19:20.403Z,17.60
2018-05-25T23:21:47.944Z,17.60
2018-05-25T23:24:16.510Z,17.60
2018-05-25T23:26:44.218Z,17.50
2018-05-25T23:29:11.739Z,17.60
2018-05-25T23:31:39.334Z,17.50
2018-05-25T23:34:06.826Z,17.60
2018-05-25T23:36:34.387Z,17.60
2018-05-25T23:39:01.892Z,17.60
2018-05-25T23:41:29.370Z,17.60
2018-05-25T23:43:56.888Z,17.60
2018-05-25T23:46:33.235Z,17.50
2018-05-25T23:49:01.564Z,17.60
2018-05-25T23:51:29.914Z,17.60
2018-05-25T23:53:58.177Z,17.70
2018-05-25T23:56:25.713Z,17.60
2018-05-25T23:58:53.785Z,17.60
